Time;durP1;ratioP1;P1;durP2;ratioP2;P2;SDS_P1;SDS_P2;PMS_P1;PMS_P2;Temp;Humidity;BMP_temperature;BMP_pressure;BME280_temperature;BME280_humidity;BME280_pressure;Samples;Min_cycle;Max_cycle;Signal;HPM_P1;HPM_P2
2022/07/04 00:00:18;;;;;;;8.70;1.40;;;;;;;26.48;47.65;98918.00;4952923;29;20023;-49
2022/07/04 00:02:45;;;;;;;10.95;1.75;;;;;;;26.47;47.75;98912.91;4954215;28;20027;-50
2022/07/04 00:05:12;;;;;;;7.43;1.70;;;;;;;26.66;47.91;98899.34;4954078;28;20027;-50
2022/07/04 00:07:44;;;;;;;7.95;1.70;;;;;;;26.90;47.24;98886.47;4954156;28;20508;-49
2022/07/04 00:10:11;;;;;;;9.55;2.10;;;;;;;26.99;47.18;98883.84;4952710;29;20446;-49
2022/07/04 00:12:37;;;;;;;18.15;2.88;;;;;;;26.99;47.12;98878.44;4952827;29;20028;-50
2022/07/04 00:15:05;;;;;;;6.82;1.40;;;;;;;27.10;46.77;98885.22;4954313;28;20023;-50
2022/07/04 00:17:31;;;;;;;9.65;2.00;;;;;;;27.14;46.62;98888.06;4952583;29;20024;-50
2022/07/04 00:19:57;;;;;;;5.05;1.13;;;;;;;26.92;46.28;98906.88;4954024;28;20038;-50
2022/07/04 00:22:23;;;;;;;4.55;0.93;;;;;;;26.71;46.68;98915.41;4953940;28;20031;-50
2022/07/04 00:24:49;;;;;;;11.68;2.80;;;;;;;26.56;47.18;98910.31;4953950;28;20083;-50
2022/07/04 00:27:15;;;;;;;10.00;1.70;;;;;;;26.53;47.41;98902.84;4953858;28;20023;-50
2022/07/04 00:29:41;;;;;;;10.63;1.67;;;;;;;26.59;47.08;98909.75;4968639;28;20074;-50
2022/07/04 00:32:07;;;;;;;8.32;1.70;;;;;;;26.63;46.92;98916.13;4952500;29;20430;-50
2022/07/04 00:34:33;;;;;;;13.68;1.58;;;;;;;26.62;46.52;98909.94;4952303;29;20105;-49
2022/07/04 00:36:58;;;;;;;8.02;2.00;;;;;;;26.71;47.03;98899.25;4953633;29;20098;-49
2022/07/04 00:39:24;;;;;;;2.10;0.82;;;;;;;26.95;45.90;98896.31;4953713;29;20028;-50
2022/07/04 00:41:50;;;;;;;14.27;1.83;;;;;;;26.72;46.52;98900.84;4953902;28;20031;-49
2022/07/04 00:44:16;;;;;;;8.30;1.95;;;;;;;27.02;46.59;98898.59;4958829;28;20027;-50
2022/07/04 00:46:43;;;;;;;4.53;1.63;;;;;;;27.23;46.11;98901.63;4960063;28;20031;-50
2022/07/04 00:49:10;;;;;;;8.50;1.75;;;;;;;27.16;45.44;98893.16;4960068;28;20110;-50
2022/07/04 00:51:41;;;;;;;13.82;1.70;;;;;;;26.99;46.29;98896.50;4960019;28;20027;-50
2022/07/04 00:54:09;;;;;;;7.32;1.35;;;;;;;27.01;45.97;98892.41;4960012;28;20042;-50
2022/07/04 00:56:37;;;;;;;6.90;1.55;;;;;;;27.02;45.63;98888.59;4959870;28;20023;-50
2022/07/04 00:59:03;;;;;;;7.22;1.13;;;;;;;26.90;45.60;98905.31;4959995;28;20038;-50
2022/07/04 01:01:29;;;;;;;4.70;0.80;;;;;;;26.76;45.52;98904.50;4959988;28;20027;-50
2022/07/04 01:03:56;;;;;;;4.68;1.17;;;;;;;26.63;45.99;98905.34;4958637;29;20382;-50
2022/07/04 01:06:22;;;;;;;7.63;1.50;;;;;;;26.53;46.14;98902.84;4958573;28;20028;-50
2022/07/04 01:08:48;;;;;;;10.20;2.08;;;;;;;26.56;46.63;98902.22;4958625;28;20382;-50
2022/07/04 01:11:14;;;;;;;7.10;1.30;;;;;;;26.77;45.97;98914.19;4958525;29;20023;-50
2022/07/04 01:13:41;;;;;;;5.85;1.23;;;;;;;26.92;45.62;98923.84;4959842;28;20023;-50
2022/07/04 01:16:08;;;;;;;9.00;1.50;;;;;;;26.75;45.83;98916.41;4958415;29;20107;-50
2022/07/04 01:18:34;;;;;;;2.75;1.20;;;;;;;26.65;46.06;98920.09;4974663;28;20049;-50
2022/07/04 01:20:59;;;;;;;9.98;1.90;;;;;;;26.64;46.02;98923.09;4959771;28;20533;-50
2022/07/04 01:23:25;;;;;;;4.65;1.45;;;;;;;26.60;45.81;98944.44;4959746;29;20099;-49
2022/07/04 01:25:52;;;;;;;11.05;1.38;;;;;;;26.37;46.16;98962.34;4958473;28;20023;-49
2022/07/04 01:28:25;;;;;;;9.15;1.60;;;;;;;26.11;46.60;98973.56;4958436;28;20441;-49
2022/07/04 01:30:52;;;;;;;6.03;1.38;;;;;;;26.07;46.40;98972.56;4958429;28;20281;-50
2022/07/04 01:33:17;;;;;;;8.68;1.35;;;;;;;26.11;46.29;98978.16;4958134;29;20408;-50
2022/07/04 01:35:47;;;;;;;5.53;1.35;;;;;;;26.15;46.13;98973.78;4959656;28;20031;-49
2022/07/04 01:38:13;;;;;;;7.53;1.00;;;;;;;26.34;45.25;98962.94;4958352;29;20397;-50
2022/07/04 01:40:39;;;;;;;8.38;1.52;;;;;;;26.45;45.47;98958.97;4958363;28;20062;-50
2022/07/04 01:43:05;;;;;;;5.97;1.65;;;;;;;26.40;45.07;98948.31;4959612;28;20500;-50
2022/07/04 01:45:34;;;;;;;5.80;1.33;;;;;;;26.27;45.30;98944.50;4958478;28;20098;-50
2022/07/04 01:48:04;;;;;;;5.85;1.20;;;;;;;26.09;45.12;98930.03;4958264;29;20055;-49
2022/07/04 01:50:30;;;;;;;10.77;1.20;;;;;;;25.85;45.68;98934.72;4959498;28;20031;-49
2022/07/04 01:52:56;;;;;;;5.13;1.42;;;;;;;25.67;46.27;98926.41;4958896;28;20020;-49
2022/07/04 01:55:21;;;;;;;9.13;2.17;;;;;;;25.71;46.36;98930.09;4954413;29;20027;-49
2022/07/04 01:57:47;;;;;;;7.60;1.58;;;;;;;25.63;46.33;98917.34;4956361;29;20605;-50
2022/07/04 02:02:58;;;;;;;5.00;1.15;;;;;;;25.59;46.31;98910.94;4956400;29;20413;-50
2022/07/04 02:05:24;;;;;;;3.42;1.27;;;;;;;25.68;46.34;98903.81;4954998;29;20031;-50
2022/07/04 02:07:50;;;;;;;9.73;1.52;;;;;;;25.86;46.03;98901.38;4955019;29;20027;-50
2022/07/04 02:10:16;;;;;;;3.92;1.60;;;;;;;25.84;45.98;98893.59;4956244;28;20054;-50
2022/07/04 02:13:00;;;;;;;5.53;1.60;;;;;;;25.59;46.25;98896.72;4956184;28;20019;-50
2022/07/04 02:15:30;;;;;;;1.52;1.00;;;;;;;25.49;46.43;98897.69;4956206;28;20054;-50
2022/07/04 02:17:57;;;;;;;10.02;1.67;;;;;;;25.54;46.86;98897.59;4955981;28;20110;-50
2022/07/04 02:20:24;;;;;;;2.00;0.95;;;;;;;25.67;45.95;98904.91;4956041;28;20106;-50
2022/07/04 02:22:50;;;;;;;10.75;1.83;;;;;;;25.65;46.38;98890.16;4956017;28;20051;-50
2022/07/04 02:25:15;;;;;;;7.70;2.47;;;;;;;25.82;45.80;98890.41;4955965;28;20073;-50
2022/07/04 02:27:41;;;;;;;5.97;1.65;;;;;;;25.89;45.90;98873.88;4955965;29;20027;-50
2022/07/04 02:30:07;;;;;;;9.25;1.80;;;;;;;25.97;45.49;98881.28;4954510;29;20031;-50
2022/07/04 02:32:34;;;;;;;9.70;1.90;;;;;;;26.00;45.63;98875.34;4955894;28;20028;-49
2022/07/04 02:35:00;;;;;;;5.82;1.60;;;;;;;26.03;45.29;98876.63;4955447;28;20050;-50
2022/07/04 02:37:26;;;;;;;11.40;2.50;;;;;;;26.25;45.18;98873.25;4954298;29;20415;-49
2022/07/04 02:39:51;;;;;;;7.10;1.30;;;;;;;26.32;44.83;98870.97;4955701;29;20481;-50
2022/07/04 02:42:17;;;;;;;7.15;1.30;;;;;;;26.35;44.77;98880.31;4954359;29;20034;-49
2022/07/04 02:44:44;;;;;;;10.25;1.92;;;;;;;26.28;44.84;98894.19;4954279;29;20501;-50
2022/07/04 02:47:09;;;;;;;10.00;1.55;;;;;;;26.28;44.88;98894.19;4954178;29;20027;-50
2022/07/04 02:49:35;;;;;;;5.20;1.30;;;;;;;26.18;45.21;98892.50;4954261;29;20042;-50
2022/07/04 02:52:01;;;;;;;6.93;1.65;;;;;;;26.04;45.32;98900.53;4954135;29;20526;-49
2022/07/04 02:54:27;;;;;;;11.82;2.13;;;;;;;25.93;45.51;98907.19;4955470;29;20038;-50
2022/07/04 02:56:52;;;;;;;8.88;1.80;;;;;;;25.92;45.94;98921.75;4955294;28;20493;-49
2022/07/04 02:59:18;;;;;;;4.32;1.20;;;;;;;25.96;45.67;98922.75;4955335;29;20027;-49
2022/07/04 03:01:44;;;;;;;23.23;19.75;;;;;;;25.90;45.74;98916.66;4955304;29;20042;-49
2022/07/04 03:04:09;;;;;;;8.55;2.20;;;;;;;25.76;45.98;98915.00;4955877;28;20075;-49
2022/07/04 03:06:35;;;;;;;4.30;1.35;;;;;;;25.66;46.20;98913.28;4954857;28;20049;-49
2022/07/04 03:09:01;;;;;;;5.13;1.10;;;;;;;25.58;46.16;98906.69;4955148;29;20394;-50
2022/07/04 03:11:27;;;;;;;6.97;1.75;;;;;;;25.38;46.81;98907.81;4955102;28;20461;-49
2022/07/04 03:13:52;;;;;;;9.80;1.75;;;;;;;25.29;47.35;98907.69;4955070;28;20027;-50
2022/07/04 03:16:18;;;;;;;4.15;1.05;;;;;;;25.15;47.38;98909.44;4953661;29;20023;-50
2022/07/04 03:18:44;;;;;;;14.73;2.17;;;;;;;25.18;47.71;98908.88;4953677;29;20532;-49
2022/07/04 03:21:10;;;;;;;6.85;1.20;;;;;;;25.21;47.46;98912.84;4953619;29;20027;-49
2022/07/04 03:23:35;;;;;;;2.97;0.88;;;;;;;25.00;47.95;98902.41;4954950;29;20110;-49
2022/07/04 03:26:02;;;;;;;3.70;1.17;;;;;;;25.00;47.84;98923.09;4954816;29;20437;-50
2022/07/04 03:28:28;;;;;;;5.63;1.50;;;;;;;24.91;48.34;98926.44;4954835;28;20054;-50
2022/07/04 03:30:54;;;;;;;8.90;1.63;;;;;;;24.89;48.36;98939.34;4954794;28;20105;-49
2022/07/04 03:33:19;;;;;;;8.48;2.00;;;;;;;24.83;48.47;98937.81;4954465;28;20055;-49
2022/07/04 03:35:45;;;;;;;8.65;1.17;;;;;;;24.72;48.64;98936.34;4954624;28;20042;-50
2022/07/04 03:38:11;;;;;;;6.22;1.83;;;;;;;24.63;48.99;98933.50;4953532;29;20023;-50
2022/07/04 03:40:38;;;;;;;4.13;1.20;;;;;;;24.59;48.87;98934.34;4954578;28;20081;-50
2022/07/04 03:43:07;;;;;;;3.95;1.35;;;;;;;24.41;49.47;98942.03;4953239;29;20023;-49
2022/07/04 03:45:34;;;;;;;6.88;1.50;;;;;;;24.29;49.68;98942.44;4954540;28;20031;-49
2022/07/04 03:48:02;;;;;;;7.85;1.67;;;;;;;24.15;50.06;98938.81;4953223;29;20442;-49
2022/07/04 03:50:28;;;;;;;8.93;1.45;;;;;;;23.99;50.37;98937.38;4953164;29;20030;-50
2022/07/04 03:52:54;;;;;;;13.30;1.63;;;;;;;23.84;50.43;98932.94;4953097;29;20027;-49
2022/07/04 03:55:19;;;;;;;9.77;2.53;;;;;;;23.78;51.47;98929.50;4954379;29;20027;-50
2022/07/04 03:57:45;;;;;;;10.32;1.52;;;;;;;24.08;50.88;98924.94;4952974;29;20027;-50
2022/07/04 04:00:11;;;;;;;7.93;1.83;;;;;;;24.23;50.28;98926.69;4954335;28;20027;-50
2022/07/04 04:02:37;;;;;;;11.43;1.30;;;;;;;24.16;49.94;98927.00;4952996;29;20027;-49
2022/07/04 04:07:48;;;;;;;9.27;2.13;;;;;;;23.64;52.16;98920.47;4954195;29;20046;-49
2022/07/04 04:10:14;;;;;;;12.77;2.10;;;;;;;23.76;51.85;98912.06;4952792;29;20043;-50
2022/07/04 04:12:39;;;;;;;4.53;1.40;;;;;;;23.78;51.24;98924.13;4952861;29;20570;-49
2022/07/04 04:15:05;;;;;;;10.35;1.98;;;;;;;23.81;51.36;98915.53;4952700;29;20074;-50
2022/07/04 04:17:31;;;;;;;12.80;1.75;;;;;;;23.83;51.46;98932.16;4953294;28;20059;-50
2022/07/04 04:19:57;;;;;;;8.57;1.42;;;;;;;23.79;51.32;98927.63;4952704;29;20097;-50
2022/07/04 04:22:23;;;;;;;4.90;1.50;;;;;;;23.79;51.64;98933.00;4952681;29;20019;-50
2022/07/04 04:24:48;;;;;;;8.48;1.35;;;;;;;23.72;51.32;98944.00;4952582;29;20040;-50
2022/07/04 04:27:14;;;;;;;7.13;1.02;;;;;;;23.65;51.68;98941.63;4952550;29;20098;-50
2022/07/04 04:29:40;;;;;;;9.05;1.30;;;;;;;23.65;51.93;98948.88;4953883;28;20031;-49
2022/07/04 04:32:06;;;;;;;9.30;1.25;;;;;;;23.69;51.77;98950.72;4954092;29;20023;-50
2022/07/04 04:34:33;;;;;;;10.10;1.20;;;;;;;23.76;51.55;98949.59;4952281;29;20150;-49
2022/07/04 04:36:59;;;;;;;14.95;2.17;;;;;;;23.87;51.42;98945.78;4953648;29;20117;-50
2022/07/04 04:39:25;;;;;;;10.90;2.55;;;;;;;24.19;50.88;98942.53;4953736;28;20039;-50
2022/07/04 04:41:51;;;;;;;11.27;1.83;;;;;;;24.60;49.92;98939.44;4953707;28;20071;-49
2022/07/04 04:44:19;;;;;;;10.15;1.60;;;;;;;24.88;49.08;98932.38;4953733;28;20034;-49
2022/07/04 04:46:45;;;;;;;4.82;1.48;;;;;;;25.07;48.81;98934.28;4953671;29;20045;-50
2022/07/04 04:49:11;;;;;;;5.97;1.20;;;;;;;25.26;48.15;98943.16;4952429;29;20031;-50
2022/07/04 04:51:36;;;;;;;5.18;0.95;;;;;;;25.69;47.60;98944.94;4953632;28;20047;-50
2022/07/04 04:54:02;;;;;;;8.65;1.60;;;;;;;26.26;46.13;98934.03;4953600;29;20020;-50
2022/07/04 04:56:28;;;;;;;7.32;1.80;;;;;;;26.94;44.89;98928.94;4952231;29;20405;-50
2022/07/04 04:58:54;;;;;;;8.05;1.65;;;;;;;27.77;42.59;98921.38;4952282;29;20085;-49
2022/07/04 05:01:19;;;;;;;6.63;1.23;;;;;;;28.51;41.25;98921.91;4953616;28;20406;-50
2022/07/04 05:03:45;;;;;;;8.25;1.50;;;;;;;29.18;39.67;98909.97;4953561;29;20078;-49
2022/07/04 05:06:11;;;;;;;12.20;1.98;;;;;;;29.49;39.05;98909.75;4952252;29;20035;-49
2022/07/04 05:08:36;;;;;;;5.53;1.52;;;;;;;29.22;39.41;98900.88;4953478;28;20153;-50
2022/07/04 05:11:02;;;;;;;7.00;1.45;;;;;;;28.87;39.60;98910.84;4953550;29;20050;-50
2022/07/04 05:13:28;;;;;;;15.23;1.95;;;;;;;29.27;39.74;98908.81;4953478;29;20023;-50
2022/07/04 05:15:54;;;;;;;12.50;2.28;;;;;;;29.57;39.00;98906.25;4953350;29;20501;-48
2022/07/04 05:18:19;;;;;;;15.27;2.35;;;;;;;29.95;37.91;98905.53;4952204;29;20040;-50
2022/07/04 05:20:45;;;;;;;7.78;1.20;;;;;;;30.75;36.73;98899.44;4953376;28;20456;-50
2022/07/04 05:23:11;;;;;;;4.40;1.20;;;;;;;31.43;35.05;98893.81;4953383;29;20117;-50
2022/07/04 05:25:37;;;;;;;6.63;1.38;;;;;;;32.08;34.02;98903.41;4953597;29;20110;-50
2022/07/04 05:28:03;;;;;;;4.88;1.30;;;;;;;32.45;33.51;98915.81;4954114;28;20159;-50
2022/07/04 05:30:29;;;;;;;5.30;1.13;;;;;;;32.19;33.59;98923.53;4955700;29;20031;-50
2022/07/04 05:32:54;;;;;;;5.07;1.48;;;;;;;31.51;34.85;98935.59;4956920;28;20394;-50
2022/07/04 05:35:20;;;;;;;10.38;1.45;;;;;;;31.30;35.24;98930.13;4956811;29;20115;-50
2022/07/04 05:37:46;;;;;;;6.93;1.60;;;;;;;31.30;35.35;98922.00;4956779;28;20387;-49
2022/07/04 05:40:12;;;;;;;4.65;1.02;;;;;;;32.01;34.63;98915.56;4956828;29;20393;-50
2022/07/04 05:42:38;;;;;;;4.78;1.20;;;;;;;32.87;32.81;98916.72;4956731;28;20421;-50
2022/07/04 05:45:04;;;;;;;6.78;1.42;;;;;;;33.29;31.67;98916.38;4956731;29;20031;-50
2022/07/04 05:47:30;;;;;;;13.98;2.33;;;;;;;33.70;31.29;98922.56;4955425;29;20586;-48
2022/07/04 05:49:56;;;;;;;5.90;1.20;;;;;;;33.76;30.42;98932.06;4955320;29;20174;-50
2022/07/04 05:52:22;;;;;;;4.57;0.95;;;;;;;33.28;31.33;98933.84;4956545;29;20031;-50
2022/07/04 05:54:48;;;;;;;5.20;0.95;;;;;;;32.35;32.88;98942.66;4955218;29;20043;-50
2022/07/04 05:57:14;;;;;;;12.88;1.40;;;;;;;31.06;34.61;98950.56;4955072;29;20027;-50
2022/07/04 05:59:40;;;;;;;9.50;1.30;;;;;;;30.95;35.25;98956.72;4956453;28;20098;-50
2022/07/04 06:02:06;;;;;;;4.03;1.13;;;;;;;31.77;34.00;98953.50;4955120;29;20532;-50
2022/07/04 06:04:31;;;;;;;7.57;1.40;;;;;;;32.89;32.66;98941.63;4956321;29;20039;-49
2022/07/04 06:06:57;;;;;;;5.50;1.05;;;;;;;33.93;30.73;98950.78;4956317;28;20110;-50
2022/07/04 06:09:23;;;;;;;13.32;3.08;;;;;;;34.16;30.27;98940.09;4955035;29;20031;-50
2022/07/04 06:11:49;;;;;;;10.90;1.80;;;;;;;34.19;30.48;98944.84;4956212;28;20030;-50
2022/07/04 06:14:14;;;;;;;4.85;1.17;;;;;;;33.38;31.39;98941.50;4956248;28;20550;-49
2022/07/04 06:16:40;;;;;;;1.55;0.80;;;;;;;33.87;30.52;98938.56;4956052;29;20065;-50
2022/07/04 06:19:06;;;;;;;7.35;1.55;;;;;;;33.98;30.18;98936.91;4954794;29;20509;-50
2022/07/04 06:21:32;;;;;;;8.45;1.35;;;;;;;33.61;30.59;98933.59;4956038;29;20034;-50
2022/07/04 06:23:58;;;;;;;6.95;1.40;;;;;;;33.85;30.37;98932.69;4954734;29;20086;-50
2022/07/04 06:26:24;;;;;;;5.50;1.00;;;;;;;34.01;30.64;98935.44;4954666;29;20031;-50
2022/07/04 06:28:49;;;;;;;6.72;1.02;;;;;;;34.12;29.98;98933.75;4955925;28;20023;-50
2022/07/04 06:31:16;;;;;;;8.27;1.77;;;;;;;33.73;30.30;98939.00;4955842;29;20521;-50
2022/07/04 06:36:32;;;;;;;6.35;1.40;;;;;;;34.67;29.63;98927.66;4936735;28;20043;-50
2022/07/04 06:38:58;;;;;;;10.70;1.52;;;;;;;35.13;28.55;98928.66;4955749;28;20023;-50
2022/07/04 06:41:24;;;;;;;9.27;1.58;;;;;;;34.88;28.79;98927.34;4955055;28;20023;-50
2022/07/04 06:43:50;;;;;;;7.20;1.50;;;;;;;34.59;29.33;98935.66;4954378;29;20038;-50
2022/07/04 06:46:15;;;;;;;8.30;1.25;;;;;;;34.31;29.47;98935.81;4955617;29;20498;-50
2022/07/04 06:48:41;;;;;;;17.80;1.70;;;;;;;34.47;29.66;98940.41;4955612;29;20019;-50
2022/07/04 06:51:07;;;;;;;13.75;1.95;;;;;;;34.80;29.57;98953.69;4955490;29;20082;-50
2022/07/04 06:53:32;;;;;;;4.25;1.50;;;;;;;35.23;28.80;98953.81;4955500;29;20027;-50
2022/07/04 06:55:58;;;;;;;7.18;1.67;;;;;;;34.85;28.99;98949.88;4954094;29;20059;-48
2022/07/04 06:58:24;;;;;;;6.78;1.80;;;;;;;34.81;29.38;98957.97;4955383;28;20393;-50
2022/07/04 07:00:50;;;;;;;8.80;1.60;;;;;;;35.11;28.83;98952.78;4954072;29;20034;-50
2022/07/04 07:03:15;;;;;;;6.63;1.48;;;;;;;35.49;28.68;98966.81;4955331;29;20050;-50
2022/07/04 07:05:41;;;;;;;10.23;1.95;;;;;;;36.32;27.38;98960.91;4953915;29;20126;-50
2022/07/04 07:08:07;;;;;;;11.75;1.90;;;;;;;37.41;25.86;98956.59;4955247;28;20031;-50
2022/07/04 07:10:32;;;;;;;6.47;1.30;;;;;;;38.27;25.01;98957.44;4955153;29;20106;-50
2022/07/04 07:12:59;;;;;;;6.32;1.20;;;;;;;39.04;24.10;98948.53;4955145;29;20074;-50
2022/07/04 07:15:24;;;;;;;8.95;1.40;;;;;;;39.60;23.17;98951.88;4953713;29;20039;-48
2022/07/04 07:17:50;;;;;;;5.72;1.42;;;;;;;39.38;23.17;98962.00;4954952;28;20070;-48
2022/07/04 07:20:16;;;;;;;15.90;1.85;;;;;;;38.63;24.37;98973.41;4954954;29;20482;-47
2022/07/04 07:22:42;;;;;;;8.65;1.45;;;;;;;38.50;24.78;98972.91;4954950;28;20502;-51
2022/07/04 07:25:12;;;;;;;54.90;3.92;;;;;;;38.48;24.39;98967.00;4937658;29;20086;-48
2022/07/04 07:27:39;;;;;;;9.55;1.30;;;;;;;38.84;24.30;98972.72;4953511;29;20020;-48
2022/07/04 07:30:06;;;;;;;12.23;1.70;;;;;;;37.79;25.09;98960.13;4953556;29;20266;-48
2022/07/04 07:32:31;;;;;;;11.10;1.70;;;;;;;36.48;27.32;98963.50;4954780;28;20023;-48
2022/07/04 07:34:57;;;;;;;10.20;1.80;;;;;;;35.77;27.93;98961.91;4953260;29;20052;-50
2022/07/04 07:37:23;;;;;;;5.60;1.65;;;;;;;35.65;28.14;98953.06;4953223;29;20401;-50
2022/07/04 07:39:50;;;;;;;5.65;1.55;;;;;;;36.01;27.94;98946.31;4953339;29;20024;-50
2022/07/04 07:42:16;;;;;;;31.20;2.97;;;;;;;36.58;27.27;98947.28;4954602;28;20559;-50
2022/07/04 07:44:45;;;;;;;12.07;2.13;;;;;;;37.21;26.94;98958.72;4954495;28;20020;-48
2022/07/04 07:47:15;;;;;;;22.40;1.88;;;;;;;37.88;26.10;98940.66;4954485;28;20525;-50
2022/07/04 07:49:44;;;;;;;10.13;1.55;;;;;;;38.56;24.70;98927.50;4953184;29;20058;-50
2022/07/04 07:52:10;;;;;;;6.95;1.05;;;;;;;39.01;24.23;98939.13;4953501;28;20027;-50
2022/07/04 07:54:36;;;;;;;3.92;1.67;;;;;;;39.51;24.08;98936.56;4954381;28;20421;-50
2022/07/04 07:57:01;;;;;;;31.67;3.55;;;;;;;39.71;23.33;98928.75;4954183;28;20031;-51
2022/07/04 07:59:27;;;;;;;39.15;3.60;;;;;;;39.83;23.05;98924.84;4952958;29;20054;-51
2022/07/04 08:01:53;;;;;;;21.92;2.03;;;;;;;40.00;22.92;98930.75;4954214;29;20135;-50
2022/07/04 08:07:11;;;;;;;5.80;1.13;;;;;;;40.42;22.64;98927.22;4954268;29;20175;-50
2022/07/04 08:09:38;;;;;;;10.05;1.95;;;;;;;40.74;22.35;98923.63;4954198;28;20042;-50
2022/07/04 08:12:06;;;;;;;5.32;1.50;;;;;;;40.87;22.24;98910.19;4954035;28;20042;-49
2022/07/04 08:14:33;;;;;;;6.63;1.27;;;;;;;40.76;22.30;98909.47;4954067;28;20024;-50
2022/07/04 08:16:59;;;;;;;12.90;2.38;;;;;;;40.75;22.37;98908.69;4952779;29;20027;-50
2022/07/04 08:19:25;;;;;;;4.32;1.50;;;;;;;41.42;21.64;98917.81;4953976;28;20027;-52
2022/07/04 08:21:54;;;;;;;9.23;1.75;;;;;;;41.82;21.24;98912.84;4953031;29;20461;-52
2022/07/04 08:24:20;;;;;;;8.43;1.60;;;;;;;41.98;20.99;98914.28;4953857;28;20030;-51
2022/07/04 08:26:47;;;;;;;7.53;1.48;;;;;;;42.21;20.90;98911.75;4953907;29;20027;-52
2022/07/04 08:29:19;;;;;;;10.25;1.77;;;;;;;42.87;20.69;98901.63;4953891;28;20517;-52
2022/07/04 08:31:45;;;;;;;19.10;2.97;;;;;;;43.24;20.03;98905.44;4953821;28;20031;-53
2022/07/04 08:34:11;;;;;;;14.73;2.17;;;;;;;43.14;20.06;98914.66;4952320;29;20102;-52
2022/07/04 08:36:37;;;;;;;37.70;4.20;;;;;;;43.12;20.24;98915.06;4952437;29;20023;-52
2022/07/04 08:39:03;;;;;;;15.90;1.85;;;;;;;42.06;20.83;98918.59;4952470;29;20498;-52
2022/07/04 08:41:37;;;;;;;30.17;3.30;;;;;;;40.39;22.75;98928.00;4953758;28;20032;-51
2022/07/04 08:44:03;;;;;;;4.97;1.42;;;;;;;39.68;23.25;98926.81;4953836;28;20065;-52
2022/07/04 08:46:30;;;;;;;5.60;1.52;;;;;;;39.85;23.39;98930.72;4952440;29;20506;-51
2022/07/04 08:49:01;;;;;;;12.30;2.15;;;;;;;40.34;23.12;98928.41;4953743;28;20030;-52
2022/07/04 08:51:44;;;;;;;5.95;1.30;;;;;;;40.32;23.17;98942.53;4953769;28;20038;-52
2022/07/04 08:59:45;;;;;;;23.50;2.65;;;;;;;39.24;24.86;98974.53;4953701;29;20671;-51
2022/07/04 09:02:13;;;;;;;20.98;2.33;;;;;;;39.35;24.41;98986.31;4953649;28;20027;-51
2022/07/04 09:04:40;;;;;;;15.80;2.15;;;;;;;38.70;25.23;98992.66;4955680;29;20024;-52
2022/07/04 09:07:06;;;;;;;12.93;1.85;;;;;;;38.23;25.36;98994.22;4957410;28;20051;-49
2022/07/04 09:09:33;;;;;;;34.17;3.42;;;;;;;37.50;26.60;99014.56;4957404;28;20121;-50
2022/07/04 09:11:59;;;;;;;8.43;1.92;;;;;;;36.54;27.88;99031.19;4957368;28;20023;-50
2022/07/04 09:14:24;;;;;;;9.32;1.75;;;;;;;35.65;28.86;99045.91;4957277;29;20058;-49
2022/07/04 09:16:53;;;;;;;33.15;3.20;;;;;;;34.97;29.83;99067.84;4957150;29;20106;-49
2022/07/04 09:19:21;;;;;;;12.90;2.28;;;;;;;34.16;31.07;99070.06;4957248;28;20434;-50
2022/07/04 09:21:48;;;;;;;50.60;4.00;;;;;;;33.41;32.45;99072.22;4955882;29;20169;-48
2022/07/04 09:24:15;;;;;;;28.63;2.83;;;;;;;32.63;33.96;99060.44;4957342;29;20032;-49
2022/07/04 09:26:46;;;;;;;58.08;4.28;;;;;;;32.32;34.60;99047.38;4957081;28;20668;-49
2022/07/04 09:29:12;;;;;;;24.63;2.90;;;;;;;32.06;34.98;99038.69;4955786;29;20098;-49
2022/07/04 09:31:38;;;;;;;18.75;2.65;;;;;;;31.90;35.36;99022.22;4957000;28;20126;-48
2022/07/04 09:34:07;;;;;;;14.85;2.22;;;;;;;31.46;35.50;99006.31;4956684;28;20043;-49
2022/07/04 09:36:44;;;;;;;14.43;1.90;;;;;;;31.17;36.19;98991.66;4956830;28;20042;-50
2022/07/04 09:39:15;;;;;;;20.05;2.80;;;;;;;30.82;37.06;98985.63;4956942;28;20031;-49
2022/07/04 09:41:59;;;;;;;14.25;2.45;;;;;;;30.54;37.42;98982.59;4956802;28;20024;-48
2022/07/04 09:44:43;;;;;;;13.10;2.10;;;;;;;30.16;37.94;98969.78;4957116;28;20053;-50
2022/07/04 09:47:28;;;;;;;11.13;2.17;;;;;;;29.82;38.86;98944.41;4956768;28;20031;-48
2022/07/04 09:50:02;;;;;;;7.15;1.77;;;;;;;29.51;39.63;98934.56;4956737;28;20059;-50
2022/07/04 09:52:30;;;;;;;16.95;2.20;;;;;;;29.18;40.34;98908.03;4955347;29;20035;-50
2022/07/04 09:55:05;;;;;;;10.00;1.42;;;;;;;28.82;41.62;98873.19;4956622;28;20118;-49
2022/07/04 09:57:32;;;;;;;10.15;1.55;;;;;;;28.44;42.17;98874.53;4956482;28;20030;-49
2022/07/04 10:00:16;;;;;;;9.88;2.00;;;;;;;28.23;43.11;98898.59;4956473;28;20026;-49
2022/07/04 10:02:42;;;;;;;8.67;1.93;;;;;;;28.24;43.26;98902.88;4956587;28;20038;-49
2022/07/04 10:05:08;;;;;;;3.45;1.60;;;;;;;28.37;43.30;98916.56;4956356;29;20262;-49
2022/07/04 10:07:45;;;;;;;8.70;2.22;;;;;;;28.49;43.15;98911.38;4955064;29;20034;-50
2022/07/04 10:10:31;;;;;;;7.90;1.80;;;;;;;28.61;42.84;98900.00;4956378;28;20035;-49
2022/07/04 10:13:03;;;;;;;5.53;1.73;;;;;;;28.66;42.79;98899.88;4956284;28;20023;-49
2022/07/04 10:15:29;;;;;;;15.98;2.60;;;;;;;28.82;42.23;98916.41;4955127;28;20027;-49
2022/07/04 10:17:55;;;;;;;8.80;1.60;;;;;;;29.10;42.18;98925.03;4956121;28;20019;-49
2022/07/04 10:20:21;;;;;;;4.55;1.25;;;;;;;29.62;41.01;98919.63;4956328;28;20086;-49
2022/07/04 10:22:46;;;;;;;8.82;1.70;;;;;;;30.63;39.71;98921.81;4956040;29;20066;-49
2022/07/04 10:25:12;;;;;;;7.80;1.80;;;;;;;31.71;37.91;98925.00;4954696;29;20023;-49
2022/07/04 10:27:39;;;;;;;5.70;1.50;;;;;;;32.55;36.35;98936.34;4955967;28;20523;-49
2022/07/04 10:30:07;;;;;;;5.40;1.65;;;;;;;32.78;35.10;98930.41;4954630;29;20030;-49
2022/07/04 10:32:34;;;;;;;8.98;1.40;;;;;;;32.89;35.34;98922.59;4955929;28;20023;-49
2022/07/04 10:35:00;;;;;;;7.47;1.67;;;;;;;33.06;34.86;98916.88;4954381;29;20050;-49
2022/07/04 10:38:02;;;;;;;4.75;1.30;;;;;;;33.33;34.38;98911.84;4955761;28;20023;-49
2022/07/04 10:40:42;;;;;;;9.15;2.00;;;;;;;34.22;33.26;98919.63;4955754;28;20023;-49
2022/07/04 10:43:30;;;;;;;11.07;2.47;;;;;;;36.12;30.56;98922.72;4955745;28;20027;-50
2022/07/04 10:46:06;;;;;;;5.93;1.58;;;;;;;37.23;28.29;98928.19;4955682;29;20046;-50
2022/07/04 10:48:32;;;;;;;4.57;1.48;;;;;;;38.02;27.08;98934.50;4955582;29;20031;-50
2022/07/04 10:51:06;;;;;;;2.58;0.90;;;;;;;39.11;25.60;98946.63;4955597;28;20074;-49
2022/07/04 10:53:53;;;;;;;15.50;2.00;;;;;;;39.83;25.22;98941.31;4955527;28;20102;-50
2022/07/04 10:56:18;;;;;;;30.90;2.92;;;;;;;40.58;23.62;98937.00;4955273;29;20520;-52
2022/07/04 10:58:44;;;;;;;129.13;9.30;;;;;;;41.29;22.79;98939.56;4954151;29;20069;-53
2022/07/04 11:01:14;;;;;;;123.65;9.60;;;;;;;41.55;22.34;98923.63;4955354;28;20023;-52
2022/07/04 11:03:54;;;;;;;146.25;12.23;;;;;;;41.37;22.32;98929.25;4954051;29;20035;-52
2022/07/04 11:06:40;;;;;;;25.38;3.03;;;;;;;41.09;22.57;98925.47;4955321;28;20023;-53
2022/07/04 11:09:24;;;;;;;70.65;6.22;;;;;;;41.20;22.51;98917.16;4955250;29;20094;-53
2022/07/04 11:12:01;;;;;;;47.47;5.03;;;;;;;40.88;22.93;98898.78;4953859;29;20461;-53
2022/07/04 11:14:44;;;;;;;66.28;4.88;;;;;;;40.81;22.83;98893.34;4953859;29;20035;-52
2022/07/04 11:17:32;;;;;;;51.77;5.10;;;;;;;40.00;23.42;98892.28;4955061;28;20027;-52
2022/07/04 11:20:03;;;;;;;38.63;3.38;;;;;;;38.75;24.93;98883.31;4955072;28;20035;-51
2022/07/04 11:22:30;;;;;;;35.63;4.50;;;;;;;37.63;26.15;98867.25;4955247;28;20412;-50
2022/07/04 11:24:56;;;;;;;34.65;2.92;;;;;;;36.73;26.92;98877.16;4954941;28;20576;-50
2022/07/04 11:27:22;;;;;;;28.35;2.58;;;;;;;36.05;27.95;98878.09;4953349;28;20094;-49
2022/07/04 11:29:52;;;;;;;37.13;3.80;;;;;;;35.46;28.90;98872.00;4954839;28;20023;-48
2022/07/04 11:32:18;;;;;;;33.35;3.63;;;;;;;35.10;29.57;98866.63;4954698;28;20031;-50
2022/07/04 11:34:44;;;;;;;60.03;4.20;;;;;;;34.59;31.00;98861.25;4953201;29;20055;-49
2022/07/04 11:37:10;;;;;;;29.83;3.08;;;;;;;34.25;31.50;98868.28;4954607;29;20136;-48
2022/07/04 11:39:36;;;;;;;53.15;3.55;;;;;;;34.33;31.47;98856.41;4954691;29;20040;-49
2022/07/04 11:45:05;;;;;;;12.70;2.05;;;;;;;35.57;29.69;98846.44;4954879;29;20049;-50
2022/07/04 11:47:38;;;;;;;15.73;1.85;;;;;;;36.42;28.69;98829.06;4954773;29;20504;-50
2022/07/04 11:50:08;;;;;;;19.83;2.08;;;;;;;36.59;28.42;98825.78;4954469;28;20042;-49